In Rescue
 
Open Full Screen Window  High Contrast Mode
September 21, 2019 8:57 AM EDT
Weather Information
Wind Direction
  ---
Wind Speed
  00 kt (0 mph)
Wind Gust
  00 kt (0 mph)
Altimeter
30.16 in
Visibility
10 SM
Temperature
20° C
68° F
Dewpoint
17° C
63° F
Humidity
83%
Sky Condition
Clear
VFR

METAR KCFS 211257Z AUTO 00000KT 10SM CLR 20/17 A3016 RMK AO2 T01960173

FAA Disclaimer: The data displayed is for advisory purposes only and is not to be used for flight planning or operations.